createdAt,value
2023-04-18T00:00:51.002Z,441.00
2023-04-18T00:04:51.031Z,442.00
2023-04-18T00:08:50.975Z,442.00
2023-04-18T00:12:50.802Z,442.00
2023-04-18T00:16:51.054Z,440.00
2023-04-18T00:20:50.989Z,441.00
2023-04-18T00:24:51.162Z,442.00
2023-04-18T00:28:51.280Z,444.00
2023-04-18T00:32:51.235Z,442.00
2023-04-18T00:36:51.351Z,447.00
2023-04-18T00:40:51.408Z,444.00
2023-04-18T00:44:51.383Z,445.00
2023-04-18T00:48:51.565Z,442.00
2023-04-18T00:52:51.638Z,440.00
2023-04-18T00:56:51.543Z,437.00
2023-04-18T01:00:51.566Z,446.00
2023-04-18T01:04:51.701Z,448.00
2023-04-18T01:08:51.875Z,452.00
2023-04-18T01:12:51.937Z,449.00
2023-04-18T01:16:52.026Z,441.00
2023-04-18T01:20:52.121Z,444.00
2023-04-18T01:24:52.254Z,438.00
2023-04-18T01:28:52.407Z,436.00
2023-04-18T01:32:52.435Z,441.00
2023-04-18T01:36:52.572Z,444.00
2023-04-18T01:40:52.790Z,440.00
2023-04-18T01:44:52.855Z,441.00
2023-04-18T01:48:52.958Z,437.00
2023-04-18T01:52:53.177Z,441.00
2023-04-18T01:56:53.150Z,441.00
2023-04-18T02:00:53.440Z,438.00
2023-04-18T02:04:53.565Z,441.00
2023-04-18T02:08:53.555Z,440.00
2023-04-18T02:12:53.729Z,437.00
2023-04-18T02:16:53.790Z,433.00
2023-04-18T02:20:53.904Z,436.00
2023-04-18T02:24:54.040Z,438.00
2023-04-18T02:28:54.118Z,437.00
2023-04-18T02:32:54.395Z,434.00
2023-04-18T02:36:54.358Z,439.00
2023-04-18T02:40:54.552Z,442.00
2023-04-18T02:44:54.582Z,444.00
2023-04-18T02:48:54.720Z,441.00
2023-04-18T02:52:54.839Z,440.00
2023-04-18T02:56:54.991Z,441.00
2023-04-18T03:00:55.233Z,438.00
2023-04-18T03:04:55.339Z,436.00
2023-04-18T03:08:55.439Z,435.00
2023-04-18T03:12:55.502Z,439.00
2023-04-18T03:16:55.873Z,439.00
2023-04-18T03:20:55.871Z,438.00
2023-04-18T03:24:56.140Z,439.00
2023-04-18T03:28:56.291Z,435.00
2023-04-18T03:32:56.379Z,431.00
2023-04-18T03:36:56.387Z,433.00
2023-04-18T03:40:56.578Z,438.00
2023-04-18T03:44:56.793Z,440.00
2023-04-18T03:48:56.985Z,439.00
2023-04-18T03:52:57.075Z,447.00
2023-04-18T03:56:57.253Z,441.00
2023-04-18T04:00:57.372Z,427.00
2023-04-18T04:04:57.668Z,438.00
2023-04-18T04:08:57.779Z,448.00
2023-04-18T04:12:57.848Z,447.00
2023-04-18T04:16:57.817Z,446.00
2023-04-18T04:20:57.782Z,445.00
2023-04-18T04:24:57.975Z,439.00
2023-04-18T04:28:57.917Z,440.00
2023-04-18T04:32:57.766Z,444.00
2023-04-18T04:36:57.731Z,441.00
2023-04-18T04:40:57.640Z,446.00
2023-04-18T04:44:57.722Z,444.00
2023-04-18T04:48:57.726Z,443.00
2023-04-18T04:52:57.513Z,446.00
2023-04-18T04:56:57.609Z,447.00
2023-04-18T05:00:57.640Z,452.00
2023-04-18T05:04:57.700Z,455.00
2023-04-18T05:08:57.681Z,452.00
2023-04-18T05:12:57.423Z,458.00
2023-04-18T05:16:57.447Z,458.00
2023-04-18T05:20:57.371Z,453.00
2023-04-18T05:24:57.361Z,451.00
2023-04-18T05:28:57.296Z,449.00
2023-04-18T05:32:57.292Z,452.00
2023-04-18T05:36:57.228Z,451.00
2023-04-18T05:40:57.238Z,449.00
2023-04-18T05:44:57.198Z,455.00
2023-04-18T05:48:57.437Z,463.00
2023-04-18T05:52:57.517Z,454.00
2023-04-18T05:56:57.666Z,446.00
2023-04-18T06:00:57.873Z,456.00
2023-04-18T06:04:58.038Z,455.00
2023-04-18T06:08:58.076Z,454.00
2023-04-18T06:12:58.224Z,459.00
2023-04-18T06:16:58.268Z,461.00
2023-04-18T06:20:58.526Z,460.00
2023-04-18T06:24:58.616Z,469.00
2023-04-18T06:28:58.626Z,461.00
2023-04-18T06:32:58.817Z,463.00
2023-04-18T06:36:58.796Z,464.00
2023-04-18T06:40:59.036Z,466.00
2023-04-18T06:44:59.011Z,476.00
2023-04-18T06:48:59.120Z,476.00
2023-04-18T06:52:59.291Z,467.00
2023-04-18T06:56:59.366Z,464.00
2023-04-18T07:00:59.358Z,471.00
2023-04-18T07:04:59.637Z,465.00
2023-04-18T07:08:59.425Z,464.00
2023-04-18T07:12:59.680Z,460.00
2023-04-18T07:16:59.892Z,462.00
2023-04-18T07:20:59.971Z,459.00
2023-04-18T07:25:00.148Z,459.00
2023-04-18T07:29:00.066Z,466.00
2023-04-18T07:33:00.050Z,468.00
2023-04-18T07:36:59.975Z,464.00
2023-04-18T07:40:59.956Z,458.00
2023-04-18T07:44:59.955Z,466.00
2023-04-18T07:48:59.892Z,466.00
2023-04-18T07:52:59.827Z,472.00
2023-04-18T07:56:59.815Z,452.00
2023-04-18T08:00:59.760Z,452.00
2023-04-18T08:04:59.814Z,452.00
2023-04-18T08:08:59.781Z,463.00
2023-04-18T08:12:59.656Z,459.00
2023-04-18T08:16:59.655Z,456.00
2023-04-18T08:20:59.661Z,452.00
2023-04-18T08:25:05.125Z,451.00
2023-04-18T08:29:00.619Z,440.00
2023-04-18T08:32:59.727Z,436.00
2023-04-18T08:36:59.850Z,429.00
2023-04-18T08:41:00.008Z,429.00
2023-04-18T08:45:00.296Z,434.00
2023-04-18T08:49:00.357Z,433.00
2023-04-18T08:53:00.404Z,442.00
2023-04-18T08:57:00.622Z,432.00
2023-04-18T09:01:00.708Z,461.00
2023-04-18T09:05:00.638Z,451.00
2023-04-18T09:09:00.558Z,458.00
2023-04-18T09:13:00.627Z,454.00
2023-04-18T09:17:00.635Z,441.00
2023-04-18T09:21:00.509Z,438.00
2023-04-18T09:25:00.427Z,447.00
2023-04-18T09:29:00.369Z,442.00
2023-04-18T09:33:00.439Z,445.00
2023-04-18T09:37:00.371Z,434.00
2023-04-18T09:41:00.282Z,437.00
2023-04-18T09:45:00.301Z,428.00
2023-04-18T09:49:00.226Z,437.00
2023-04-18T09:53:00.271Z,448.00
2023-04-18T09:57:00.180Z,448.00
2023-04-18T10:01:00.296Z,454.00
2023-04-18T10:05:00.283Z,449.00
2023-04-18T10:09:00.129Z,444.00
2023-04-18T10:13:00.056Z,443.00
2023-04-18T10:17:00.147Z,447.00
2023-04-18T10:21:00.235Z,446.00
2023-04-18T10:25:00.293Z,441.00
2023-04-18T10:29:00.372Z,447.00
2023-04-18T10:33:00.470Z,445.00
2023-04-18T10:37:00.547Z,434.00
2023-04-18T10:41:00.626Z,438.00
2023-04-18T10:45:00.544Z,433.00
2023-04-18T10:49:00.575Z,433.00
2023-04-18T10:53:00.506Z,441.00
2023-04-18T10:57:00.760Z,444.00
2023-04-18T11:01:00.873Z,444.00
2023-04-18T11:05:00.684Z,438.00
2023-04-18T11:09:00.654Z,434.00
2023-04-18T11:13:00.664Z,435.00
2023-04-18T11:17:00.648Z,434.00
2023-04-18T11:21:00.575Z,432.00
2023-04-18T11:25:00.460Z,431.00
2023-04-18T11:29:00.426Z,435.00
2023-04-18T11:33:00.512Z,423.00
2023-04-18T11:37:00.333Z,435.00
2023-04-18T11:41:00.332Z,432.00
2023-04-18T11:45:00.039Z,439.00
2023-04-18T11:49:00.127Z,431.00
2023-04-18T11:52:59.948Z,432.00
2023-04-18T11:56:59.909Z,446.00
2023-04-18T12:00:59.972Z,431.00
2023-04-18T12:05:00.322Z,435.00
2023-04-18T12:09:00.143Z,439.00
2023-04-18T12:13:00.197Z,432.00
2023-04-18T12:17:00.192Z,424.00
2023-04-18T12:21:00.168Z,423.00
2023-04-18T12:25:00.212Z,422.00
2023-04-18T12:29:00.340Z,421.00
2023-04-18T12:33:00.438Z,423.00
2023-04-18T12:37:00.581Z,418.00
2023-04-18T12:41:00.734Z,421.00
2023-04-18T12:45:00.862Z,430.00
2023-04-18T12:49:00.968Z,429.00
2023-04-18T12:53:01.048Z,429.00
2023-04-18T12:57:01.128Z,424.00
2023-04-18T13:01:11.355Z,429.00
2023-04-18T13:05:01.126Z,421.00
2023-04-18T13:09:01.089Z,428.00
2023-04-18T13:13:01.037Z,430.00
2023-04-18T13:17:01.022Z,434.00
2023-04-18T13:21:00.973Z,431.00
2023-04-18T13:25:00.997Z,424.00
2023-04-18T13:29:00.943Z,422.00
2023-04-18T13:33:00.872Z,421.00
2023-04-18T13:37:00.816Z,465.00
2023-04-18T13:41:11.589Z,422.00
2023-04-18T13:45:02.019Z,552.00
2023-04-18T13:49:00.802Z,418.00
2023-04-18T13:53:00.736Z,428.00
2023-04-18T13:57:00.825Z,437.00
2023-04-18T14:01:01.046Z,431.00
2023-04-18T14:05:01.344Z,433.00
2023-04-18T14:10:01.893Z,429.00
2023-04-18T14:11:01.466Z,432.00
2023-04-18T14:12:01.510Z,431.00
2023-04-18T14:13:01.473Z,435.00
2023-04-18T14:14:01.470Z,430.00
2023-04-18T14:15:01.499Z,420.00
2023-04-18T14:16:01.498Z,416.00
2023-04-18T14:17:01.436Z,427.00
2023-04-18T14:18:01.537Z,415.00
2023-04-18T14:19:01.510Z,425.00
2023-04-18T14:20:01.488Z,427.00
2023-04-18T14:21:01.503Z,428.00
2023-04-18T14:22:01.537Z,428.00
2023-04-18T14:23:01.676Z,429.00
2023-04-18T14:24:01.660Z,430.00
2023-04-18T14:25:01.712Z,430.00
2023-04-18T14:26:01.778Z,427.00
2023-04-18T14:27:01.816Z,430.00
2023-04-18T14:28:01.867Z,427.00
2023-04-18T14:29:01.846Z,429.00
2023-04-18T14:30:01.855Z,429.00
2023-04-18T14:31:01.920Z,433.00
2023-04-18T14:32:01.885Z,429.00
2023-04-18T14:33:01.934Z,432.00
2023-04-18T14:34:01.874Z,436.00
2023-04-18T14:35:01.884Z,433.00
2023-04-18T14:36:01.889Z,435.00
2023-04-18T14:37:01.898Z,433.00
2023-04-18T14:38:01.980Z,433.00
2023-04-18T14:39:01.976Z,430.00
2023-04-18T14:40:01.949Z,433.00
2023-04-18T14:41:01.956Z,428.00
2023-04-18T14:42:02.092Z,425.00
2023-04-18T14:43:02.060Z,431.00
2023-04-18T14:44:02.073Z,437.00
2023-04-18T14:45:02.114Z,428.00
2023-04-18T14:46:02.119Z,430.00
2023-04-18T14:47:02.300Z,421.00
2023-04-18T14:48:02.231Z,428.00
2023-04-18T14:49:02.335Z,424.00
2023-04-18T14:50:02.338Z,426.00
2023-04-18T14:51:02.349Z,426.00
2023-04-18T14:52:02.375Z,427.00
2023-04-18T14:53:02.398Z,431.00
2023-04-18T14:54:02.390Z,431.00
2023-04-18T14:55:02.433Z,431.00
2023-04-18T14:56:02.432Z,434.00
2023-04-18T14:57:02.436Z,435.00
2023-04-18T14:58:02.453Z,433.00
2023-04-18T14:59:02.718Z,435.00
2023-04-18T15:00:02.449Z,437.00
2023-04-18T15:01:02.516Z,435.00
2023-04-18T15:02:02.560Z,432.00
2023-04-18T15:03:02.521Z,435.00
2023-04-18T15:04:02.680Z,436.00
2023-04-18T15:05:02.632Z,433.00
2023-04-18T15:06:02.503Z,437.00
2023-04-18T15:07:02.526Z,433.00
2023-04-18T15:08:02.566Z,437.00
2023-04-18T15:09:02.585Z,431.00
2023-04-18T15:10:02.547Z,439.00
2023-04-18T15:11:02.576Z,429.00
2023-04-18T15:12:02.597Z,437.00
2023-04-18T15:13:02.640Z,437.00
2023-04-18T15:14:02.609Z,439.00
2023-04-18T15:15:02.657Z,445.00
2023-04-18T15:16:02.662Z,442.00
2023-04-18T15:17:02.632Z,439.00
2023-04-18T15:18:02.769Z,438.00
2023-04-18T15:19:02.707Z,435.00
2023-04-18T15:20:02.710Z,434.00
2023-04-18T15:21:02.800Z,433.00
2023-04-18T15:22:02.820Z,435.00
2023-04-18T15:23:02.853Z,428.00
2023-04-18T15:24:02.856Z,431.00
2023-04-18T15:25:02.888Z,431.00
2023-04-18T15:26:02.897Z,431.00
2023-04-18T15:27:02.942Z,433.00
2023-04-18T15:28:02.997Z,429.00
2023-04-18T15:29:03.044Z,432.00
2023-04-18T15:30:03.072Z,433.00
2023-04-18T15:31:03.142Z,434.00
2023-04-18T15:32:03.232Z,433.00
2023-04-18T15:33:03.283Z,431.00
2023-04-18T15:34:03.277Z,430.00
2023-04-18T15:35:03.272Z,411.00
2023-04-18T15:36:03.349Z,420.00
2023-04-18T15:37:03.425Z,423.00
2023-04-18T15:38:03.493Z,429.00
2023-04-18T15:39:03.496Z,426.00
2023-04-18T15:40:03.517Z,433.00
2023-04-18T15:41:03.549Z,426.00
2023-04-18T15:42:03.508Z,428.00
2023-04-18T15:43:03.573Z,430.00
2023-04-18T15:44:03.925Z,426.00
2023-04-18T15:45:03.547Z,432.00
2023-04-18T15:46:03.573Z,427.00
2023-04-18T15:47:03.609Z,424.00
2023-04-18T15:48:03.636Z,427.00
2023-04-18T15:49:03.631Z,427.00
2023-04-18T15:50:03.688Z,426.00
2023-04-18T15:51:03.672Z,430.00
2023-04-18T15:52:03.674Z,427.00
2023-04-18T15:53:03.792Z,431.00
2023-04-18T15:54:03.717Z,426.00
2023-04-18T15:55:03.769Z,431.00
2023-04-18T15:56:03.716Z,427.00
2023-04-18T15:57:03.739Z,434.00
2023-04-18T15:58:03.716Z,440.00
2023-04-18T15:59:03.711Z,437.00
2023-04-18T16:00:03.755Z,428.00
2023-04-18T16:01:03.749Z,434.00
2023-04-18T16:02:03.918Z,432.00
2023-04-18T16:03:03.827Z,432.00
2023-04-18T16:04:03.852Z,436.00
2023-04-18T16:05:03.809Z,428.00
2023-04-18T16:06:03.834Z,420.00
2023-04-18T16:07:03.859Z,426.00
2023-04-18T16:08:03.943Z,428.00
2023-04-18T16:09:03.919Z,427.00
2023-04-18T16:10:03.939Z,434.00
2023-04-18T16:11:03.951Z,432.00
2023-04-18T16:12:04.013Z,431.00
2023-04-18T16:13:04.059Z,433.00
2023-04-18T16:14:04.122Z,430.00
2023-04-18T16:15:04.136Z,430.00
2023-04-18T16:16:04.166Z,429.00
2023-04-18T16:17:04.240Z,428.00
2023-04-18T16:18:04.302Z,428.00
2023-04-18T16:19:04.345Z,427.00
2023-04-18T16:20:04.419Z,428.00
2023-04-18T16:21:04.430Z,428.00
2023-04-18T16:22:04.489Z,425.00
2023-04-18T16:23:04.520Z,431.00
2023-04-18T16:24:04.512Z,429.00
2023-04-18T16:25:04.603Z,427.00
2023-04-18T16:26:04.623Z,429.00
2023-04-18T16:27:04.732Z,435.00
2023-04-18T16:28:04.750Z,436.00
2023-04-18T16:29:04.800Z,440.00
2023-04-18T16:30:04.868Z,440.00
2023-04-18T16:31:04.951Z,436.00
2023-04-18T16:32:05.022Z,440.00
2023-04-18T16:33:05.086Z,437.00
2023-04-18T16:34:05.089Z,444.00
2023-04-18T16:35:05.262Z,438.00
2023-04-18T16:36:05.166Z,442.00
2023-04-18T16:37:05.222Z,435.00
2023-04-18T16:38:05.275Z,436.00
2023-04-18T16:39:05.306Z,444.00
2023-04-18T16:40:05.311Z,438.00
2023-04-18T16:41:05.319Z,441.00
2023-04-18T16:42:05.422Z,439.00
2023-04-18T16:43:05.429Z,436.00
2023-04-18T16:44:05.558Z,442.00
2023-04-18T16:45:05.547Z,428.00
2023-04-18T16:46:05.622Z,431.00
2023-04-18T16:47:05.766Z,436.00
2023-04-18T16:48:05.832Z,431.00
2023-04-18T16:49:05.802Z,434.00
2023-04-18T16:50:05.812Z,438.00
2023-04-18T16:51:05.926Z,433.00
2023-04-18T16:52:05.996Z,433.00
2023-04-18T16:53:05.989Z,432.00
2023-04-18T16:54:05.957Z,423.00
2023-04-18T16:55:05.964Z,438.00
2023-04-18T16:56:05.961Z,431.00
2023-04-18T16:57:05.954Z,434.00
2023-04-18T16:58:05.943Z,426.00
2023-04-18T16:59:05.968Z,422.00
2023-04-18T17:00:05.981Z,418.00
2023-04-18T17:01:06.032Z,416.00
2023-04-18T17:02:06.065Z,427.00
2023-04-18T17:03:06.149Z,429.00
2023-04-18T17:04:06.060Z,427.00
2023-04-18T17:05:06.067Z,428.00
2023-04-18T17:06:06.074Z,428.00
2023-04-18T17:07:06.111Z,434.00
2023-04-18T17:08:06.152Z,431.00
2023-04-18T17:09:06.261Z,433.00
2023-04-18T17:10:06.416Z,430.00
2023-04-18T17:11:06.251Z,427.00
2023-04-18T17:12:06.270Z,433.00
2023-04-18T17:13:06.344Z,421.00
2023-04-18T17:14:06.370Z,420.00
2023-04-18T17:15:06.381Z,420.00
2023-04-18T17:16:06.399Z,417.00
2023-04-18T17:17:06.395Z,418.00
2023-04-18T17:18:06.465Z,421.00
2023-04-18T17:19:06.396Z,422.00
2023-04-18T17:20:06.416Z,421.00
2023-04-18T17:21:06.409Z,424.00
2023-04-18T17:22:06.477Z,424.00
2023-04-18T17:23:06.598Z,421.00
2023-04-18T17:24:06.610Z,420.00
2023-04-18T17:25:06.583Z,424.00
2023-04-18T17:26:06.622Z,421.00
2023-04-18T17:27:06.564Z,424.00
2023-04-18T17:28:06.643Z,424.00
2023-04-18T17:29:06.738Z,423.00
2023-04-18T17:30:06.691Z,423.00
2023-04-18T17:31:06.690Z,428.00
2023-04-18T17:32:06.718Z,426.00
2023-04-18T17:33:06.786Z,425.00
2023-04-18T17:34:06.798Z,426.00
2023-04-18T17:35:06.837Z,431.00
2023-04-18T17:36:06.893Z,431.00
2023-04-18T17:37:06.897Z,423.00
2023-04-18T17:38:06.902Z,422.00
2023-04-18T17:39:07.001Z,426.00
2023-04-18T17:40:06.875Z,424.00
2023-04-18T17:41:06.925Z,423.00
2023-04-18T17:42:06.953Z,424.00
2023-04-18T17:43:06.976Z,423.00
2023-04-18T17:44:06.947Z,424.00
2023-04-18T17:45:06.998Z,422.00
2023-04-18T17:46:07.924Z,420.00
2023-04-18T17:47:06.985Z,422.00
2023-04-18T17:48:07.057Z,425.00
2023-04-18T17:49:06.982Z,429.00
2023-04-18T17:50:06.951Z,430.00
2023-04-18T17:51:06.988Z,434.00
2023-04-18T17:52:07.031Z,432.00
2023-04-18T17:53:07.101Z,424.00
2023-04-18T17:54:07.102Z,423.00
2023-04-18T17:55:07.034Z,416.00
2023-04-18T17:56:07.062Z,417.00
2023-04-18T17:57:07.125Z,421.00
2023-04-18T17:58:07.242Z,423.00
2023-04-18T17:59:07.348Z,431.00
2023-04-18T18:00:07.453Z,426.00
2023-04-18T18:01:07.432Z,429.00
2023-04-18T18:02:07.497Z,428.00
2023-04-18T18:03:07.579Z,428.00
2023-04-18T18:04:07.528Z,432.00
2023-04-18T18:05:07.438Z,434.00
2023-04-18T18:06:07.491Z,432.00
2023-04-18T18:07:07.509Z,430.00
2023-04-18T18:08:07.486Z,428.00
2023-04-18T18:09:07.485Z,427.00
2023-04-18T18:10:07.534Z,431.00
2023-04-18T18:11:07.561Z,431.00
2023-04-18T18:12:07.543Z,430.00
2023-04-18T18:13:07.579Z,431.00
2023-04-18T18:14:07.535Z,429.00
2023-04-18T18:15:07.589Z,428.00
2023-04-18T18:16:07.670Z,429.00
2023-04-18T18:17:07.776Z,426.00
2023-04-18T18:18:07.643Z,425.00
2023-04-18T18:19:07.626Z,428.00
2023-04-18T18:20:07.622Z,430.00
2023-04-18T18:21:07.676Z,432.00
2023-04-18T18:22:07.661Z,427.00
2023-04-18T18:23:07.727Z,431.00
2023-04-18T18:24:07.730Z,434.00
2023-04-18T18:25:08.390Z,433.00
2023-04-18T18:26:07.694Z,434.00
2023-04-18T18:27:08.393Z,434.00
2023-04-18T18:28:07.803Z,434.00
2023-04-18T18:29:07.758Z,434.00
2023-04-18T18:30:07.745Z,433.00
2023-04-18T18:31:07.784Z,435.00
2023-04-18T18:32:07.784Z,434.00
2023-04-18T18:33:07.811Z,433.00
2023-04-18T18:34:07.793Z,435.00
2023-04-18T18:35:07.751Z,434.00
2023-04-18T18:36:07.804Z,427.00
2023-04-18T18:37:07.817Z,431.00
2023-04-18T18:38:07.823Z,426.00
2023-04-18T18:39:07.834Z,425.00
2023-04-18T18:40:07.849Z,425.00
2023-04-18T18:41:07.832Z,426.00
2023-04-18T18:42:07.806Z,430.00
2023-04-18T18:43:07.856Z,434.00
2023-04-18T18:44:07.834Z,431.00
2023-04-18T18:45:07.868Z,427.00
2023-04-18T18:46:07.904Z,430.00
2023-04-18T18:47:07.878Z,424.00
2023-04-18T18:48:07.921Z,421.00
2023-04-18T18:49:07.857Z,424.00
2023-04-18T18:50:07.892Z,428.00
2023-04-18T18:51:07.898Z,419.00
2023-04-18T18:52:07.951Z,429.00
2023-04-18T18:53:07.964Z,426.00
2023-04-18T18:54:07.949Z,430.00
2023-04-18T18:55:07.994Z,436.00
2023-04-18T18:56:08.018Z,433.00
2023-04-18T18:57:08.125Z,438.00
2023-04-18T18:58:08.094Z,442.00
2023-04-18T18:59:08.080Z,427.00
2023-04-18T19:00:08.102Z,435.00
2023-04-18T19:01:08.120Z,434.00
2023-04-18T19:02:08.230Z,428.00
2023-04-18T19:03:08.416Z,432.00
2023-04-18T19:04:08.489Z,433.00
2023-04-18T19:05:08.236Z,434.00
2023-04-18T19:06:08.262Z,433.00
2023-04-18T19:07:08.333Z,434.00
2023-04-18T19:08:08.339Z,433.00
2023-04-18T19:09:08.341Z,434.00
2023-04-18T19:10:08.370Z,435.00
2023-04-18T19:11:08.393Z,438.00
2023-04-18T19:12:08.412Z,434.00
2023-04-18T19:13:08.464Z,430.00
2023-04-18T19:14:08.460Z,432.00
2023-04-18T19:15:08.517Z,431.00
2023-04-18T19:16:08.539Z,435.00
2023-04-18T19:17:08.539Z,431.00
2023-04-18T19:18:08.939Z,431.00
2023-04-18T19:19:08.684Z,431.00
2023-04-18T19:20:08.660Z,430.00
2023-04-18T19:21:08.651Z,432.00
2023-04-18T19:22:08.740Z,434.00
2023-04-18T19:23:08.738Z,429.00
2023-04-18T19:24:08.779Z,422.00
2023-04-18T19:25:08.792Z,424.00
2023-04-18T19:26:08.787Z,427.00
2023-04-18T19:27:08.876Z,426.00
2023-04-18T19:28:08.823Z,426.00
2023-04-18T19:29:08.876Z,431.00
2023-04-18T19:30:08.843Z,429.00
2023-04-18T19:31:08.972Z,426.00
2023-04-18T19:32:08.852Z,426.00
2023-04-18T19:33:08.943Z,430.00
2023-04-18T19:34:08.888Z,428.00
2023-04-18T19:35:08.941Z,429.00
2023-04-18T19:36:08.960Z,430.00
2023-04-18T19:37:08.999Z,431.00
2023-04-18T19:38:09.046Z,429.00
2023-04-18T19:39:09.057Z,430.00
2023-04-18T19:40:09.050Z,432.00
2023-04-18T19:41:09.097Z,433.00
2023-04-18T19:42:09.137Z,433.00
2023-04-18T19:43:09.183Z,433.00
2023-04-18T19:44:09.202Z,439.00
2023-04-18T19:45:09.237Z,423.00
2023-04-18T19:46:09.285Z,432.00
2023-04-18T19:47:09.271Z,426.00
2023-04-18T19:48:09.277Z,429.00
2023-04-18T19:49:09.340Z,428.00
2023-04-18T19:50:09.457Z,425.00
2023-04-18T19:51:09.384Z,430.00
2023-04-18T19:52:09.434Z,429.00
2023-04-18T19:53:09.403Z,431.00
2023-04-18T19:54:09.456Z,432.00
2023-04-18T19:55:09.526Z,430.00
2023-04-18T19:56:09.552Z,432.00
2023-04-18T19:57:09.586Z,434.00
2023-04-18T19:58:09.577Z,431.00
2023-04-18T19:59:09.618Z,436.00
2023-04-18T20:00:09.672Z,433.00
2023-04-18T20:01:09.760Z,429.00
2023-04-18T20:02:09.786Z,431.00
2023-04-18T20:03:09.920Z,431.00
2023-04-18T20:04:10.031Z,430.00
2023-04-18T20:05:10.281Z,429.00
2023-04-18T20:06:09.914Z,433.00
2023-04-18T20:07:09.980Z,432.00
2023-04-18T20:08:10.029Z,435.00
2023-04-18T20:09:10.074Z,431.00
2023-04-18T20:10:10.102Z,424.00
2023-04-18T20:11:10.185Z,424.00
2023-04-18T20:12:10.233Z,427.00
2023-04-18T20:13:10.312Z,428.00
2023-04-18T20:14:10.404Z,427.00
2023-04-18T20:15:10.417Z,428.00
2023-04-18T20:16:10.502Z,423.00
2023-04-18T20:17:10.564Z,433.00
2023-04-18T20:18:10.670Z,429.00
2023-04-18T20:19:12.614Z,425.00
2023-04-18T20:20:10.724Z,425.00
2023-04-18T20:21:10.834Z,417.00
2023-04-18T20:22:10.877Z,427.00
2023-04-18T20:23:10.920Z,429.00
2023-04-18T20:24:10.997Z,428.00
2023-04-18T20:25:11.038Z,428.00
2023-04-18T20:26:11.064Z,430.00
2023-04-18T20:27:11.165Z,424.00
2023-04-18T20:28:11.196Z,426.00
2023-04-18T20:29:11.272Z,425.00
2023-04-18T20:30:11.313Z,426.00
2023-04-18T20:31:11.390Z,429.00
2023-04-18T20:32:11.438Z,422.00
2023-04-18T20:33:11.510Z,424.00
2023-04-18T20:34:11.582Z,419.00
2023-04-18T20:35:11.534Z,422.00
2023-04-18T20:36:11.544Z,424.00
2023-04-18T20:37:11.512Z,425.00
2023-04-18T20:38:11.543Z,428.00
2023-04-18T20:39:11.579Z,425.00
2023-04-18T20:40:11.529Z,424.00
2023-04-18T20:41:11.516Z,425.00
2023-04-18T20:42:11.559Z,429.00
2023-04-18T20:43:11.538Z,431.00
2023-04-18T20:44:11.569Z,427.00
2023-04-18T20:45:11.548Z,425.00
2023-04-18T20:46:11.574Z,427.00
2023-04-18T20:47:13.248Z,424.00
2023-04-18T20:48:11.563Z,427.00
2023-04-18T20:49:11.590Z,426.00
2023-04-18T20:50:11.554Z,423.00
2023-04-18T20:51:11.523Z,425.00
2023-04-18T20:52:11.524Z,423.00
2023-04-18T20:53:11.542Z,424.00
2023-04-18T20:54:11.549Z,427.00
2023-04-18T20:55:11.511Z,426.00
2023-04-18T20:56:11.508Z,426.00
2023-04-18T20:57:11.486Z,429.00
2023-04-18T20:58:11.494Z,427.00
2023-04-18T20:59:11.461Z,424.00
2023-04-18T21:00:11.480Z,423.00
2023-04-18T21:01:11.518Z,428.00
2023-04-18T21:02:11.606Z,432.00
2023-04-18T21:03:11.555Z,428.00
2023-04-18T21:04:11.718Z,427.00
2023-04-18T21:05:11.429Z,428.00
2023-04-18T21:06:11.436Z,427.00
2023-04-18T21:07:11.417Z,427.00
2023-04-18T21:08:11.449Z,426.00
2023-04-18T21:09:11.441Z,426.00
2023-04-18T21:10:11.394Z,427.00
2023-04-18T21:11:11.415Z,428.00
2023-04-18T21:12:11.419Z,428.00
2023-04-18T21:13:11.442Z,426.00
2023-04-18T21:14:11.434Z,425.00
2023-04-18T21:15:11.369Z,426.00
2023-04-18T21:16:11.426Z,423.00
2023-04-18T21:17:11.353Z,425.00
2023-04-18T21:18:11.360Z,425.00
2023-04-18T21:19:11.366Z,425.00
2023-04-18T21:20:11.332Z,422.00
2023-04-18T21:21:11.380Z,423.00
2023-04-18T21:22:11.340Z,418.00
2023-04-18T21:23:11.319Z,415.00
2023-04-18T21:24:11.328Z,413.00
2023-04-18T21:25:11.347Z,413.00
2023-04-18T21:26:11.330Z,417.00
2023-04-18T21:27:11.327Z,417.00
2023-04-18T21:28:11.289Z,418.00
2023-04-18T21:29:11.276Z,419.00
2023-04-18T21:30:11.279Z,421.00
2023-04-18T21:31:11.311Z,419.00
2023-04-18T21:32:11.279Z,424.00
2023-04-18T21:33:11.299Z,421.00
2023-04-18T21:34:11.236Z,424.00
2023-04-18T21:35:11.266Z,424.00
2023-04-18T21:36:11.266Z,423.00
2023-04-18T21:37:11.245Z,422.00
2023-04-18T21:38:11.220Z,424.00
2023-04-18T21:39:11.245Z,424.00
2023-04-18T21:40:11.252Z,423.00
2023-04-18T21:41:11.258Z,425.00
2023-04-18T21:42:11.225Z,424.00
2023-04-18T21:43:11.174Z,423.00
2023-04-18T21:44:11.216Z,422.00
2023-04-18T21:45:11.182Z,423.00
2023-04-18T21:46:11.255Z,421.00
2023-04-18T21:47:11.173Z,421.00
2023-04-18T21:48:11.151Z,420.00
2023-04-18T21:49:11.173Z,423.00
2023-04-18T21:50:11.160Z,424.00
2023-04-18T21:51:11.184Z,426.00
2023-04-18T21:52:11.149Z,424.00
2023-04-18T21:53:11.112Z,426.00
2023-04-18T21:54:11.135Z,427.00
2023-04-18T21:55:11.111Z,426.00
2023-04-18T21:56:11.098Z,427.00
2023-04-18T21:57:11.147Z,430.00
2023-04-18T21:58:11.240Z,428.00
2023-04-18T21:59:11.231Z,424.00
2023-04-18T22:00:11.294Z,424.00
2023-04-18T22:01:11.431Z,424.00
2023-04-18T22:02:11.522Z,426.00
2023-04-18T22:03:11.626Z,424.00
2023-04-18T22:04:11.668Z,422.00
2023-04-18T22:05:11.614Z,421.00
2023-04-18T22:06:11.687Z,423.00
2023-04-18T22:07:11.678Z,422.00
2023-04-18T22:08:11.732Z,419.00
2023-04-18T22:09:11.800Z,419.00
2023-04-18T22:10:11.890Z,419.00
2023-04-18T22:11:11.958Z,419.00
2023-04-18T22:12:12.032Z,419.00
2023-04-18T22:13:12.066Z,419.00
2023-04-18T22:14:12.192Z,420.00
2023-04-18T22:15:12.196Z,420.00
2023-04-18T22:16:12.246Z,419.00
2023-04-18T22:17:12.292Z,423.00
2023-04-18T22:18:12.418Z,424.00
2023-04-18T22:19:12.436Z,425.00
2023-04-18T22:20:12.458Z,425.00
2023-04-18T22:21:12.486Z,426.00
2023-04-18T22:22:12.600Z,426.00
2023-04-18T22:23:12.639Z,429.00
2023-04-18T22:24:12.828Z,430.00
2023-04-18T22:25:12.765Z,428.00
2023-04-18T22:26:12.829Z,426.00
2023-04-18T22:27:12.887Z,424.00
2023-04-18T22:28:12.922Z,422.00
2023-04-18T22:29:13.004Z,423.00
2023-04-18T22:30:13.007Z,423.00
2023-04-18T22:31:13.112Z,424.00
2023-04-18T22:32:13.192Z,423.00
2023-04-18T22:33:13.241Z,425.00
2023-04-18T22:34:13.518Z,424.00
2023-04-18T22:35:13.347Z,421.00
2023-04-18T22:36:13.421Z,419.00
2023-04-18T22:37:13.462Z,421.00
2023-04-18T22:38:13.544Z,418.00
2023-04-18T22:39:13.606Z,417.00
2023-04-18T22:40:13.622Z,417.00
2023-04-18T22:41:13.696Z,417.00
2023-04-18T22:42:13.688Z,418.00
2023-04-18T22:43:13.698Z,423.00
2023-04-18T22:44:13.892Z,422.00
2023-04-18T22:45:13.789Z,427.00
2023-04-18T22:46:13.818Z,426.00
2023-04-18T22:47:13.901Z,426.00
2023-04-18T22:48:13.944Z,425.00
2023-04-18T22:49:14.035Z,426.00
2023-04-18T22:50:14.018Z,428.00
2023-04-18T22:51:14.073Z,427.00
2023-04-18T22:52:14.179Z,424.00
2023-04-18T22:53:14.215Z,424.00
2023-04-18T22:54:14.505Z,423.00
2023-04-18T22:55:14.262Z,421.00
2023-04-18T22:56:14.310Z,422.00
2023-04-18T22:57:14.318Z,423.00
2023-04-18T22:58:14.313Z,421.00
2023-04-18T22:59:14.367Z,422.00
2023-04-18T23:00:14.353Z,420.00
2023-04-18T23:01:14.397Z,419.00
2023-04-18T23:02:14.583Z,420.00
2023-04-18T23:03:14.507Z,422.00
2023-04-18T23:04:14.780Z,424.00
2023-04-18T23:05:14.361Z,423.00
2023-04-18T23:06:14.374Z,424.00